Time;durP1;ratioP1;P1;durP2;ratioP2;P2;SDS_P1;SDS_P2;PMS_P1;PMS_P2;Temp;Humidity;BMP_temperature;BMP_pressure;BME280_temperature;BME280_humidity;BME280_pressure;Samples;Min_cycle;Max_cycle;Signal;HPM_P1;HPM_P2
2022/04/29 00:01:35;;;;;;;16.27;10.67;;;;;4.20;97345.00;;;;8272625;28;20271;-69
2022/04/29 00:05:40;;;;;;;16.97;10.77;;;;;4.20;97350.00;;;;8280345;28;20234;-70
2022/04/29 00:09:44;;;;;;;20.13;11.97;;;;;4.20;97352.00;;;;8279564;28;20218;-70
2022/04/29 00:13:47;;;;;;;18.60;11.83;;;;;4.20;97350.00;;;;8278577;28;20243;-69
2022/04/29 00:17:52;;;;;;;17.57;11.83;;;;;4.30;97345.00;;;;8286463;28;20318;-70
2022/04/29 00:21:55;;;;;;;19.57;11.57;;;;;4.20;97342.00;;;;8279338;28;20246;-70
2022/04/29 00:25:59;;;;;;;19.33;11.83;;;;;4.10;97338.00;;;;8288070;28;20362;-70
2022/04/29 00:30:02;;;;;;;19.03;11.30;;;;;4.00;97334.00;;;;8284305;28;20955;-70
2022/04/29 00:34:07;;;;;;;16.70;10.70;;;;;4.00;97342.00;;;;8279733;28;20253;-69
2022/04/29 00:38:15;;;;;;;22.20;12.03;;;;;3.90;97331.00;;;;8286859;28;20253;-69
2022/04/29 00:42:21;;;;;;;17.90;10.53;;;;;3.90;97332.00;;;;8277960;28;20233;-69
2022/04/29 00:46:24;;;;;;;16.17;10.37;;;;;3.90;97330.00;;;;8289448;28;20338;-69
2022/04/29 00:50:30;;;;;;;18.10;11.27;;;;;3.80;97327.00;;;;8270115;28;20266;-69
2022/04/29 00:54:36;;;;;;;23.07;11.70;;;;;3.80;97325.00;;;;8288505;28;20318;-69
2022/04/29 00:58:44;;;;;;;24.00;10.93;;;;;3.70;97315.00;;;;8285334;28;20227;-70
2022/04/29 01:02:49;;;;;;;20.53;11.50;;;;;3.70;97310.00;;;;8279145;28;20616;-69
2022/04/29 01:06:53;;;;;;;21.67;11.77;;;;;3.60;97307.00;;;;8284164;28;20367;-70
2022/04/29 01:10:57;;;;;;;19.97;11.43;;;;;3.60;97312.00;;;;8276691;28;20222;-68
2022/04/29 01:15:04;;;;;;;19.43;11.27;;;;;3.70;97306.00;;;;8281687;28;20235;-68
2022/04/29 01:19:08;;;;;;;18.93;11.20;;;;;3.60;97304.00;;;;8280095;28;20307;-68
2022/04/29 01:23:13;;;;;;;21.27;11.60;;;;;3.40;97304.00;;;;8284211;28;20223;-69
2022/04/29 01:27:16;;;;;;;17.80;10.63;;;;;3.40;97299.00;;;;8274126;28;20231;-70
2022/04/29 01:31:23;;;;;;;19.67;12.07;;;;;3.40;97306.00;;;;8283051;28;20229;-69
2022/04/29 01:35:27;;;;;;;20.60;11.00;;;;;3.40;97300.00;;;;8274778;28;20728;-71
2022/04/29 01:39:31;;;;;;;20.67;11.23;;;;;3.40;97301.00;;;;8282632;28;20233;-70
2022/04/29 01:43:35;;;;;;;18.97;10.37;;;;;3.40;97295.00;;;;8286101;28;20231;-71
2022/04/29 01:47:38;;;;;;;16.03;10.10;;;;;3.30;97295.00;;;;8272215;28;20683;-71
2022/04/29 01:51:42;;;;;;;17.70;10.50;;;;;3.30;97293.00;;;;8283484;28;20880;-72
2022/04/29 01:55:46;;;;;;;18.07;10.33;;;;;3.30;97296.00;;;;8282631;28;20952;-71
2022/04/29 01:59:50;;;;;;;15.83;10.53;;;;;3.20;97291.00;;;;8278436;28;20224;-71
2022/04/29 02:03:53;;;;;;;15.27;9.43;;;;;3.10;97287.00;;;;8277781;28;20227;-71
2022/04/29 02:08:00;;;;;;;19.50;11.77;;;;;3.10;97281.00;;;;8279863;28;20242;-72
2022/04/29 02:12:06;;;;;;;16.67;11.07;;;;;3.10;97279.00;;;;8281013;28;20231;-72
2022/04/29 02:16:09;;;;;;;19.83;10.73;;;;;3.10;97277.00;;;;8280024;28;20285;-72
2022/04/29 02:20:13;;;;;;;16.40;10.57;;;;;3.10;97281.00;;;;8279498;28;20238;-71
2022/04/29 02:24:16;;;;;;;20.10;9.70;;;;;3.10;97274.00;;;;8276635;28;20881;-70
2022/04/29 02:28:21;;;;;;;16.60;9.87;;;;;2.90;97268.00;;;;8275129;28;20983;-71
2022/04/29 02:32:24;;;;;;;18.20;10.17;;;;;2.80;97270.00;;;;8276449;28;20313;-71
2022/04/29 02:36:28;;;;;;;20.13;10.50;;;;;2.80;97263.00;;;;8282212;28;20317;-72
2022/04/29 02:40:31;;;;;;;20.53;10.27;;;;;2.70;97267.00;;;;8278166;28;20250;-72
2022/04/29 02:44:36;;;;;;;16.73;10.10;;;;;2.70;97273.00;;;;8282233;28;20265;-73
2022/04/29 02:48:39;;;;;;;17.73;9.43;;;;;2.70;97278.00;;;;8281492;28;20231;-73
2022/04/29 02:52:42;;;;;;;14.47;9.57;;;;;2.60;97271.00;;;;8279692;28;20236;-73
2022/04/29 02:56:46;;;;;;;19.13;9.73;;;;;2.60;97272.00;;;;8291457;28;20309;-73
2022/04/29 03:00:50;;;;;;;18.63;10.17;;;;;2.50;97268.00;;;;8313464;22;20359;-71
2022/04/29 03:04:54;;;;;;;18.80;10.33;;;;;2.50;97263.00;;;;8374762;22;20240;-73
2022/04/29 03:08:57;;;;;;;15.10;9.67;;;;;2.50;97271.00;;;;8343947;28;22055;-73
2022/04/29 03:13:00;;;;;;;19.00;9.73;;;;;2.40;97249.00;;;;8335742;28;25944;-74
2022/04/29 03:17:05;;;;;;;14.43;9.70;;;;;2.40;97253.00;;;;8349315;28;20667;-73
2022/04/29 03:21:10;;;;;;;18.73;10.30;;;;;2.40;97245.00;;;;8345737;28;20241;-73
2022/04/29 03:25:13;;;;;;;16.57;10.47;;;;;2.40;97241.00;;;;8345852;28;20228;-73
2022/04/29 03:29:17;;;;;;;15.13;9.27;;;;;2.40;97237.00;;;;8345797;28;20235;-73
2022/04/29 03:33:22;;;;;;;15.07;9.60;;;;;2.40;97236.00;;;;8345449;28;20242;-75
2022/04/29 03:37:25;;;;;;;17.43;10.13;;;;;2.30;97233.00;;;;8347058;28;20243;-74
2022/04/29 03:41:28;;;;;;;17.37;10.47;;;;;2.30;97240.00;;;;8345873;28;20300;-75
2022/04/29 03:45:33;;;;;;;16.27;10.10;;;;;2.40;97234.00;;;;8346311;28;20295;-74
2022/04/29 03:49:37;;;;;;;19.10;10.73;;;;;2.40;97233.00;;;;8345748;28;20315;-75
2022/04/29 03:53:41;;;;;;;17.67;10.63;;;;;2.40;97237.00;;;;8346858;28;20224;-74
2022/04/29 03:57:45;;;;;;;16.47;9.83;;;;;2.40;97241.00;;;;8350042;28;20380;-74
2022/04/29 04:01:48;;;;;;;17.30;9.50;;;;;2.40;97243.00;;;;8343344;28;20223;-75
2022/04/29 04:10:09;;;;;;;19.90;10.53;;;;;2.30;97244.00;;;;8312300;28;20233;-75
2022/04/29 04:14:13;;;;;;;20.07;11.57;;;;;2.50;97245.00;;;;8313687;28;20308;-73
2022/04/29 04:18:16;;;;;;;20.63;10.33;;;;;2.60;97254.00;;;;8313275;28;20236;-74
2022/04/29 04:22:21;;;;;;;18.20;10.53;;;;;2.70;97255.00;;;;8312885;28;20312;-75
2022/04/29 04:26:24;;;;;;;17.20;10.27;;;;;2.80;97259.00;;;;8297567;28;20552;-76
2022/04/29 04:30:27;;;;;;;16.23;10.60;;;;;2.90;97259.00;;;;8307941;28;20744;-76
2022/04/29 04:38:55;;;;;;;17.80;10.97;;;;;3.20;97275.00;;;;8298139;28;20659;-72
2022/04/29 04:42:58;;;;;;;21.10;11.23;;;;;3.40;97269.00;;;;8307995;28;20236;-75
2022/04/29 04:47:01;;;;;;;17.20;10.63;;;;;3.60;97271.00;;;;8309178;28;20318;-75
2022/04/29 04:51:04;;;;;;;17.33;10.50;;;;;3.70;97274.00;;;;8305618;28;20866;-74
2022/04/29 04:55:11;;;;;;;17.87;9.97;;;;;3.90;97267.00;;;;8299490;28;20234;-75
2022/04/29 04:59:14;;;;;;;14.43;9.17;;;;;4.10;97276.00;;;;8313138;28;20314;-73
2022/04/29 05:03:23;;;;;;;15.97;9.40;;;;;4.20;97279.00;;;;8301620;28;20276;-75
2022/04/29 05:07:27;;;;;;;18.70;9.40;;;;;4.40;97288.00;;;;8318764;28;21888;-74
2022/04/29 05:11:32;;;;;;;14.77;9.70;;;;;4.50;97289.00;;;;8312621;28;20665;-73
2022/04/29 05:15:55;;;;;;;16.13;9.33;;;;;4.70;97290.00;;;;8310644;28;20222;-73
2022/04/29 05:19:59;;;;;;;14.00;8.90;;;;;4.90;97298.00;;;;8311645;28;20233;-73
2022/04/29 05:24:02;;;;;;;17.47;9.43;;;;;5.20;97299.00;;;;8311031;28;20240;-72
2022/04/29 05:28:08;;;;;;;15.73;11.83;;;;;5.50;97303.00;;;;8313403;28;20225;-71
2022/04/29 05:32:12;;;;;;;15.03;10.70;;;;;5.80;97301.00;;;;8311297;28;20228;-73
2022/04/29 05:36:15;;;;;;;14.07;8.90;;;;;6.10;97304.00;;;;8313741;28;20666;-73
2022/04/29 05:44:40;;;;;;;16.80;9.53;;;;;6.90;97312.00;;;;8315652;28;20326;-73
2022/04/29 05:48:44;;;;;;;13.00;9.37;;;;;7.30;97307.00;;;;8306752;28;20244;-73
2022/04/29 05:52:50;;;;;;;13.97;9.53;;;;;7.60;97314.00;;;;8310126;28;20238;-74
2022/04/29 05:56:53;;;;;;;15.33;10.10;;;;;8.00;97305.00;;;;8310212;28;20237;-73
2022/04/29 06:00:58;;;;;;;18.30;10.93;;;;;8.40;97304.00;;;;8308995;28;20230;-74
2022/04/29 06:05:02;;;;;;;13.53;9.80;;;;;8.80;97310.00;;;;8311089;28;20237;-74
2022/04/29 06:09:05;;;;;;;14.77;10.13;;;;;9.20;97314.00;;;;8312051;28;20300;-75
2022/04/29 06:13:09;;;;;;;14.07;10.30;;;;;9.70;97318.00;;;;8307172;28;20694;-75
2022/04/29 06:17:13;;;;;;;12.83;9.90;;;;;10.20;97321.00;;;;8299715;28;20344;-71
2022/04/29 06:21:18;;;;;;;16.07;9.40;;;;;10.80;97312.00;;;;8304557;28;20230;-72
2022/04/29 06:25:21;;;;;;;13.43;9.57;;;;;11.40;97329.00;;;;8315176;28;20760;-75
2022/04/29 06:29:24;;;;;;;10.87;8.93;;;;;11.90;97323.00;;;;8312418;28;20235;-79
2022/04/29 06:33:34;;;;;;;12.68;8.20;;;;;12.30;97327.00;;;;8310243;28;20221;-78
2022/04/29 06:37:38;;;;;;;14.63;8.38;;;;;12.70;97328.00;;;;8310537;28;20230;-76
2022/04/29 06:41:41;;;;;;;12.15;8.30;;;;;13.10;97324.00;;;;8315478;28;20220;-76
2022/04/29 06:45:45;;;;;;;12.13;8.70;;;;;13.50;97326.00;;;;8313301;28;20250;-75
2022/04/29 06:49:51;;;;;;;13.20;7.75;;;;;13.90;97333.00;;;;8313854;28;20719;-78
2022/04/29 06:53:54;;;;;;;9.70;7.60;;;;;14.20;97336.00;;;;8312603;28;20308;-77
2022/04/29 06:57:57;;;;;;;12.50;7.85;;;;;14.70;97344.00;;;;8308383;28;20228;-74
2022/04/29 07:02:01;;;;;;;9.15;7.43;;;;;15.00;97343.00;;;;8306882;28;20961;-77
2022/04/29 07:06:06;;;;;;;10.13;6.53;;;;;15.00;97340.00;;;;8318329;28;20621;-73
2022/04/29 07:10:10;;;;;;;7.28;6.18;;;;;15.10;97337.00;;;;8308903;28;20234;-74
2022/04/29 07:14:14;;;;;;;7.22;6.22;;;;;15.60;97338.00;;;;8313793;28;20228;-74
2022/04/29 07:18:17;;;;;;;7.95;6.47;;;;;16.60;97337.00;;;;8310691;28;20578;-76
2022/04/29 07:22:23;;;;;;;9.45;6.47;;;;;17.60;97332.00;;;;8305062;28;20225;-75
2022/04/29 07:26:26;;;;;;;8.55;6.25;;;;;17.80;97340.00;;;;8308877;28;20264;-76
2022/04/29 07:30:29;;;;;;;8.65;5.80;;;;;18.70;97335.00;;;;8313029;28;20703;-76
2022/04/29 07:43:16;;;;;;;7.30;5.70;;;;;20.80;97334.00;;;;8305437;28;20231;-75
2022/04/29 07:47:20;;;;;;;9.70;5.68;;;;;21.40;97331.00;;;;8309819;28;20308;-76
2022/04/29 07:51:24;;;;;;;8.00;6.70;;;;;21.40;97322.00;;;;8310873;28;20339;-76
2022/04/29 07:55:29;;;;;;;6.70;5.47;;;;;21.10;97335.00;;;;8309265;28;20913;-77
2022/04/29 07:59:32;;;;;;;8.73;6.10;;;;;21.30;97329.00;;;;8309120;28;20247;-74
2022/04/29 08:03:35;;;;;;;9.77;5.95;;;;;21.90;97328.00;;;;8300817;28;20308;-76
2022/04/29 08:07:40;;;;;;;6.28;5.28;;;;;22.50;97333.00;;;;8308114;28;20221;-76
2022/04/29 08:11:44;;;;;;;6.40;4.90;;;;;22.50;97319.00;;;;8303475;28;20841;-76
2022/04/29 08:15:49;;;;;;;9.48;6.32;;;;;22.40;97326.00;;;;8309366;28;20256;-76
2022/04/29 08:19:53;;;;;;;7.70;5.75;;;;;22.90;97323.00;;;;8309447;28;20272;-79
2022/04/29 08:23:57;;;;;;;6.13;5.50;;;;;23.50;97317.00;;;;8311698;28;20233;-77
2022/04/29 08:28:02;;;;;;;11.45;5.55;;;;;23.70;97320.00;;;;8310429;28;20264;-79
2022/04/29 08:32:06;;;;;;;8.38;5.22;;;;;24.10;97312.00;;;;8310626;28;20239;-79
2022/04/29 08:36:09;;;;;;;8.13;5.35;;;;;24.40;97309.00;;;;8317025;28;20239;-79
2022/04/29 08:40:13;;;;;;;8.05;5.57;;;;;24.50;97315.00;;;;8314838;28;21035;-73
2022/04/29 08:44:19;;;;;;;8.73;5.72;;;;;24.60;97308.00;;;;8314760;28;20221;-77
2022/04/29 08:48:22;;;;;;;11.82;5.82;;;;;24.70;97310.00;;;;8300461;28;20251;-75
2022/04/29 08:52:25;;;;;;;5.53;4.78;;;;;24.80;97303.00;;;;8299966;28;20691;-76
2022/04/29 09:00:51;;;;;;;7.13;5.38;;;;;25.00;97305.00;;;;8307197;28;20305;-74
2022/04/29 09:04:57;;;;;;;6.72;5.05;;;;;25.70;97299.00;;;;8306045;28;20251;-74
2022/04/29 09:09:11;;;;;;;9.75;6.13;;;;;25.90;97297.00;;;;8315669;28;20267;-79
2022/04/29 09:13:17;;;;;;;8.10;5.38;;;;;25.80;97299.00;;;;8294047;28;20245;-78
2022/04/29 09:17:28;;;;;;;6.60;5.45;;;;;25.80;97297.00;;;;8313200;28;20267;-77
2022/04/29 09:21:31;;;;;;;8.23;5.63;;;;;25.70;97292.00;;;;8312225;28;20222;-77
2022/04/29 09:25:36;;;;;;;7.15;5.50;;;;;26.30;97289.00;;;;8283071;28;20257;-76
2022/04/29 09:29:41;;;;;;;7.18;5.45;;;;;26.30;97287.00;;;;8309532;28;20236;-77
2022/04/29 09:33:55;;;;;;;5.93;5.22;;;;;25.90;97290.00;;;;8292961;28;20734;-76
2022/04/29 09:42:24;;;;;;;6.90;4.80;;;;;26.20;97291.00;;;;8292298;28;20225;-70
2022/04/29 09:46:28;;;;;;;7.28;5.65;;;;;26.90;97287.00;;;;8301027;28;20312;-71
2022/04/29 09:50:47;;;;;;;7.85;4.90;;;;;26.90;97274.00;;;;8312164;28;20312;-71
2022/04/29 09:54:51;;;;;;;7.95;6.13;;;;;26.70;97277.00;;;;8305040;28;20302;-71
2022/04/29 09:58:57;;;;;;;5.80;4.70;;;;;26.50;97269.00;;;;8306920;28;20796;-71
2022/04/29 10:03:03;;;;;;;7.80;5.00;;;;;26.40;97263.00;;;;8285363;28;20327;-70
2022/04/29 10:07:12;;;;;;;6.22;4.88;;;;;26.10;97267.00;;;;8290208;28;20852;-70
2022/04/29 10:11:21;;;;;;;5.85;4.97;;;;;25.00;97276.00;;;;8295620;28;20273;-69
2022/04/29 10:15:25;;;;;;;7.15;5.60;;;;;25.30;97261.00;;;;8298205;28;20952;-70
2022/04/29 10:23:51;;;;;;;7.75;5.57;;;;;24.80;97259.00;;;;8299070;28;20227;-70
2022/04/29 10:27:57;;;;;;;5.82;4.90;;;;;25.30;97262.00;;;;8315623;28;20599;-70
2022/04/29 10:32:08;;;;;;;6.50;5.72;;;;;26.10;97259.00;;;;8314899;28;20229;-70
2022/04/29 10:36:14;;;;;;;7.10;5.28;;;;;26.80;97257.00;;;;8290267;28;20214;-70
2022/04/29 10:40:29;;;;;;;5.82;5.28;;;;;26.50;97243.00;;;;8287658;28;20267;-71
2022/04/29 10:44:32;;;;;;;8.48;6.20;;;;;26.50;97248.00;;;;8301869;28;20663;-71
2022/04/29 10:48:36;;;;;;;8.50;5.75;;;;;27.10;97244.00;;;;8304948;28;20678;-69
2022/04/29 10:52:40;;;;;;;8.68;5.50;;;;;27.40;97242.00;;;;8312172;28;20859;-71
2022/04/29 10:56:44;;;;;;;8.35;5.25;;;;;27.90;97232.00;;;;8308690;28;20221;-70
2022/04/29 11:00:55;;;;;;;5.30;4.80;;;;;27.90;97220.00;;;;8297312;28;20231;-71
2022/04/29 11:05:00;;;;;;;5.60;5.03;;;;;27.50;97221.00;;;;8301439;28;20957;-70
2022/04/29 11:09:04;;;;;;;9.90;5.22;;;;;27.70;97225.00;;;;8289618;28;20310;-69
2022/04/29 11:13:09;;;;;;;6.13;4.65;;;;;28.10;97224.00;;;;8322619;28;20252;-69
2022/04/29 11:17:12;;;;;;;7.47;5.10;;;;;28.80;97215.00;;;;8296353;28;20231;-70
2022/04/29 11:25:51;;;;;;;8.15;6.07;;;;;28.80;97203.00;;;;8283024;28;20299;-69
2022/04/29 11:30:01;;;;;;;6.43;4.82;;;;;29.10;97194.00;;;;8279699;28;20258;-68
2022/04/29 11:34:09;;;;;;;8.23;5.10;;;;;29.20;97195.00;;;;8312684;28;20244;-69
2022/04/29 11:38:12;;;;;;;7.10;5.82;;;;;29.20;97190.00;;;;8297312;28;20314;-69
2022/04/29 11:42:19;;;;;;;7.07;5.07;;;;;28.90;97187.00;;;;8301822;28;20639;-69
2022/04/29 11:46:24;;;;;;;7.32;5.07;;;;;28.80;97185.00;;;;8294816;28;20225;-69
2022/04/29 11:50:31;;;;;;;5.53;4.90;;;;;29.30;97186.00;;;;8311969;28;20699;-69
2022/04/29 11:54:35;;;;;;;5.53;5.03;;;;;29.50;97174.00;;;;8301228;28;20221;-71
2022/04/29 11:58:38;;;;;;;6.90;4.97;;;;;29.60;97168.00;;;;8295629;28;20239;-71
2022/04/29 12:02:47;;;;;;;7.22;5.22;;;;;29.80;97157.00;;;;8316129;28;20264;-71
2022/04/29 12:06:57;;;;;;;5.47;4.95;;;;;29.40;97155.00;;;;8310529;28;20864;-70
2022/04/29 12:11:00;;;;;;;6.47;5.32;;;;;28.90;97154.00;;;;8307097;28;20694;-70
2022/04/29 12:15:03;;;;;;;10.45;5.30;;;;;27.70;97154.00;;;;8306418;28;20253;-70
2022/04/29 12:19:18;;;;;;;10.25;6.13;;;;;26.40;97144.00;;;;8307795;28;20314;-71
2022/04/29 12:23:22;;;;;;;5.90;4.90;;;;;26.30;97135.00;;;;8310491;28;20321;-70
2022/04/29 12:27:32;;;;;;;7.00;5.15;;;;;26.70;97128.00;;;;8313192;28;20737;-70
2022/04/29 12:36:08;;;;;;;5.40;4.90;;;;;27.10;97124.00;;;;8307620;28;20221;-69
2022/04/29 12:40:12;;;;;;;6.07;5.13;;;;;27.10;97114.00;;;;8301628;28;20225;-73
2022/04/29 12:45:03;;;;;;;8.07;5.60;;;;;27.00;97125.00;;;;8307866;28;20347;-69
2022/04/29 12:48:49;;;;;;;7.25;5.20;;;;;26.90;97113.00;;;;8307762;28;20256;-71
2022/04/29 12:52:57;;;;;;;6.90;5.57;;;;;27.10;97120.00;;;;8307512;28;20231;-69
2022/04/29 12:57:00;;;;;;;7.15;5.20;;;;;26.70;97119.00;;;;8313489;28;20239;-70
2022/04/29 13:01:06;;;;;;;6.70;5.57;;;;;26.40;97110.00;;;;8311667;28;20230;-69
2022/04/29 13:05:11;;;;;;;5.25;4.75;;;;;26.30;97097.00;;;;8306331;28;20233;-70
2022/04/29 13:09:16;;;;;;;5.50;5.00;;;;;26.50;97093.00;;;;8303508;28;20308;-69
2022/04/29 13:13:20;;;;;;;6.13;5.07;;;;;26.20;97107.00;;;;8306170;28;20229;-70
2022/04/29 13:17:24;;;;;;;11.18;5.80;;;;;26.10;97089.00;;;;8311940;28;20673;-69
2022/04/29 13:21:27;;;;;;;4.70;4.13;;;;;26.20;97081.00;;;;8312688;28;20750;-70
2022/04/29 13:25:37;;;;;;;4.15;3.80;;;;;26.30;97070.00;;;;8311480;28;20308;-72
2022/04/29 13:29:40;;;;;;;8.75;4.30;;;;;26.50;97079.00;;;;8307538;28;22039;-72
2022/04/29 13:33:44;;;;;;;8.13;4.80;;;;;26.80;97069.00;;;;8314152;28;20233;-71
2022/04/29 13:37:47;;;;;;;5.30;4.20;;;;;27.00;97065.00;;;;8318171;28;20221;-71
2022/04/29 13:41:51;;;;;;;5.78;4.25;;;;;26.90;97053.00;;;;8316800;28;20643;-71
2022/04/29 13:45:56;;;;;;;4.38;4.05;;;;;26.90;97050.00;;;;8318244;28;20225;-69
2022/04/29 13:49:59;;;;;;;4.82;3.95;;;;;27.00;97047.00;;;;8317256;28;20868;-69
2022/04/29 13:54:03;;;;;;;4.20;3.80;;;;;26.80;97044.00;;;;8313175;28;20296;-70
2022/04/29 13:58:08;;;;;;;4.07;3.28;;;;;25.80;97043.00;;;;8315543;28;20236;-70
2022/04/29 14:02:12;;;;;;;6.07;3.38;;;;;25.10;97032.00;;;;8311157;28;20252;-71
2022/04/29 14:06:15;;;;;;;3.95;3.60;;;;;24.30;97036.00;;;;8317733;28;20244;-71
2022/04/29 14:10:19;;;;;;;7.38;4.05;;;;;24.20;97032.00;;;;8312487;28;20232;-70
2022/04/29 14:14:24;;;;;;;4.63;3.83;;;;;24.90;97024.00;;;;8309235;28;20249;-71
2022/04/29 14:18:28;;;;;;;4.40;3.30;;;;;25.60;97019.00;;;;8318025;28;20240;-70
2022/04/29 14:22:31;;;;;;;3.33;3.10;;;;;26.10;97019.00;;;;8314513;28;20328;-71
2022/04/29 14:26:35;;;;;;;4.60;3.05;;;;;26.60;97007.00;;;;8309703;28;20230;-69
2022/04/29 14:30:40;;;;;;;3.40;3.20;;;;;27.10;96999.00;;;;8314843;28;20229;-70
2022/04/29 14:34:45;;;;;;;4.75;3.30;;;;;26.70;96997.00;;;;8296736;28;20284;-69
2022/04/29 14:38:48;;;;;;;3.92;3.60;;;;;26.70;96993.00;;;;8314233;28;20225;-70
2022/04/29 14:42:52;;;;;;;4.90;3.17;;;;;26.40;96998.00;;;;8315505;28;20312;-70
2022/04/29 14:46:58;;;;;;;4.00;3.03;;;;;26.50;96989.00;;;;8316689;28;20321;-71
2022/04/29 14:51:01;;;;;;;4.63;3.08;;;;;26.80;96997.00;;;;8316364;28;20887;-71
2022/04/29 14:55:05;;;;;;;4.20;3.28;;;;;26.90;96980.00;;;;8299702;28;20217;-70
2022/04/29 14:59:10;;;;;;;6.25;3.20;;;;;26.90;96984.00;;;;8303350;28;20884;-70
2022/04/29 15:03:15;;;;;;;3.30;2.58;;;;;27.00;96982.00;;;;8308969;28;20243;-69
2022/04/29 15:07:19;;;;;;;4.32;3.10;;;;;26.80;96978.00;;;;8308566;28;20225;-70
2022/04/29 15:15:50;;;;;;;3.67;2.75;;;;;25.40;96969.00;;;;8314583;28;20264;-71
2022/04/29 15:19:56;;;;;;;3.45;3.15;;;;;25.00;96966.00;;;;8310013;28;20220;-70
2022/04/29 15:23:59;;;;;;;4.18;2.50;;;;;24.90;96966.00;;;;8312048;28;20233;-71
2022/04/29 15:28:03;;;;;;;11.00;2.90;;;;;24.80;96961.00;;;;8315471;28;20252;-71
2022/04/29 15:32:08;;;;;;;4.40;2.80;;;;;24.70;96967.00;;;;8314442;28;20229;-70
2022/04/29 15:36:13;;;;;;;5.38;3.72;;;;;24.80;96960.00;;;;8306654;28;20312;-70
2022/04/29 15:40:16;;;;;;;4.40;3.50;;;;;24.90;96962.00;;;;8314946;28;20217;-70
2022/04/29 15:44:19;;;;;;;3.75;2.90;;;;;25.10;96962.00;;;;8303236;28;20639;-72
2022/04/29 15:48:24;;;;;;;6.72;2.90;;;;;25.60;96957.00;;;;8310196;28;21008;-71
2022/04/29 15:52:28;;;;;;;3.47;3.10;;;;;25.90;96952.00;;;;8313649;28;20237;-72
2022/04/29 15:56:33;;;;;;;5.38;3.25;;;;;26.30;96948.00;;;;8300439;28;20228;-69
2022/04/29 16:00:37;;;;;;;3.03;2.70;;;;;26.80;96942.00;;;;8305019;28;20219;-69
2022/04/29 16:04:41;;;;;;;7.80;3.40;;;;;26.60;96943.00;;;;8302501;28;20244;-70
2022/04/29 16:08:47;;;;;;;3.00;2.80;;;;;26.20;96944.00;;;;8306008;28;20233;-76
2022/04/29 16:12:51;;;;;;;3.80;2.75;;;;;25.70;96935.00;;;;8303763;28;20225;-76
2022/04/29 16:16:54;;;;;;;3.33;2.60;;;;;25.60;96930.00;;;;8305691;28;20737;-71
2022/04/29 16:21:00;;;;;;;6.03;2.95;;;;;25.50;96936.00;;;;8309893;28;20315;-73
2022/04/29 16:29:26;;;;;;;5.35;3.30;;;;;24.50;96936.00;;;;8307476;28;20225;-72
2022/04/29 16:33:30;;;;;;;3.42;3.13;;;;;24.00;96934.00;;;;8304422;28;20237;-72
2022/04/29 16:37:34;;;;;;;3.38;3.10;;;;;23.40;96920.00;;;;8309072;28;20381;-71
2022/04/29 16:41:40;;;;;;;5.70;3.75;;;;;22.80;96927.00;;;;8305564;28;21049;-71
2022/04/29 16:45:45;;;;;;;4.32;3.05;;;;;22.40;96921.00;;;;8305757;28;20234;-72
2022/04/29 16:49:48;;;;;;;5.32;3.50;;;;;22.30;96919.00;;;;8309349;28;20246;-66
2022/04/29 16:53:52;;;;;;;5.20;3.53;;;;;22.40;96919.00;;;;8299364;28;20217;-67
2022/04/29 17:02:23;;;;;;;6.28;3.67;;;;;22.30;96913.00;;;;8311630;28;20217;-70
2022/04/29 17:06:26;;;;;;;20.05;4.00;;;;;22.20;96911.00;;;;8314782;28;20225;-71
2022/04/29 17:10:29;;;;;;;5.53;3.42;;;;;22.30;96909.00;;;;8310687;28;20313;-71
2022/04/29 17:14:35;;;;;;;4.68;3.55;;;;;22.10;96908.00;;;;8309244;28;20241;-71
2022/04/29 17:18:38;;;;;;;6.38;3.42;;;;;22.00;96912.00;;;;8317361;28;20233;-72
2022/04/29 17:22:41;;;;;;;6.63;3.80;;;;;22.00;96908.00;;;;8315289;28;20693;-71
2022/04/29 17:26:45;;;;;;;4.63;3.55;;;;;22.00;96909.00;;;;8303846;28;20232;-71
2022/04/29 17:30:52;;;;;;;6.30;3.30;;;;;21.80;96901.00;;;;8307749;28;20237;-72
2022/04/29 17:34:55;;;;;;;6.45;3.30;;;;;21.50;96906.00;;;;8306101;28;20233;-71
2022/04/29 17:38:58;;;;;;;7.10;3.38;;;;;21.20;96894.00;;;;8309104;28;20353;-72
2022/04/29 17:43:00;;;;;;;5.40;3.75;;;;;20.90;96895.00;;;;8304679;28;20225;-74
2022/04/29 17:47:06;;;;;;;5.75;3.88;;;;;20.70;96895.00;;;;8306741;28;20247;-74
2022/04/29 17:51:09;;;;;;;7.47;4.13;;;;;20.20;96898.00;;;;8315715;28;20249;-74
2022/04/29 17:55:13;;;;;;;5.35;4.40;;;;;19.70;96903.00;;;;8316486;28;20678;-74
2022/04/29 17:59:16;;;;;;;7.63;4.35;;;;;19.20;96904.00;;;;8317966;28;20348;-74
2022/04/29 18:03:21;;;;;;;5.38;4.60;;;;;18.90;96911.00;;;;8311505;28;20228;-75
2022/04/29 18:07:24;;;;;;;5.25;4.45;;;;;18.50;96918.00;;;;8316699;28;20233;-75
2022/04/29 18:11:28;;;;;;;7.00;5.07;;;;;18.20;96915.00;;;;8315947;28;20239;-75
2022/04/29 18:15:31;;;;;;;8.10;4.03;;;;;17.90;96917.00;;;;8317947;28;20257;-74
2022/04/29 18:19:36;;;;;;;8.77;4.95;;;;;17.70;96922.00;;;;8309608;28;20838;-74
2022/04/29 18:23:40;;;;;;;5.32;4.47;;;;;17.40;96923.00;;;;8308565;28;20233;-73
2022/04/29 18:27:43;;;;;;;8.18;4.28;;;;;17.20;96922.00;;;;8317450;28;20287;-75
2022/04/29 18:31:46;;;;;;;5.75;4.55;;;;;17.00;96923.00;;;;8307148;28;20317;-75
2022/04/29 18:35:51;;;;;;;6.90;4.85;;;;;16.80;96917.00;;;;8310412;28;21017;-76
2022/04/29 18:39:55;;;;;;;7.88;5.18;;;;;16.60;96930.00;;;;8314176;28;20253;-77
2022/04/29 18:43:59;;;;;;;6.88;5.00;;;;;16.40;96930.00;;;;8304433;28;20236;-77
2022/04/29 18:48:02;;;;;;;15.68;5.32;;;;;16.20;96938.00;;;;8307098;28;20237;-75
2022/04/29 18:52:08;;;;;;;9.05;5.25;;;;;15.90;96932.00;;;;8301719;28;20698;-76
2022/04/29 18:56:12;;;;;;;9.35;5.13;;;;;15.50;96930.00;;;;8305067;28;20360;-75
2022/04/29 19:00:17;;;;;;;10.40;5.15;;;;;15.10;96934.00;;;;8307701;28;20977;-75
2022/04/29 19:04:20;;;;;;;9.15;5.68;;;;;14.80;96926.00;;;;8299664;28;20318;-77
2022/04/29 19:08:25;;;;;;;9.00;5.43;;;;;14.50;96925.00;;;;8304526;28;20283;-76
2022/04/29 19:12:29;;;;;;;6.95;5.20;;;;;14.20;96922.00;;;;8299980;28;20231;-74
2022/04/29 19:16:33;;;;;;;12.85;5.70;;;;;14.10;96927.00;;;;8306347;28;20739;-75
2022/04/29 19:20:38;;;;;;;7.10;5.40;;;;;13.90;96923.00;;;;8303237;28;20227;-75
2022/04/29 19:24:42;;;;;;;11.27;5.75;;;;;13.70;96922.00;;;;8305198;28;20253;-76
2022/04/29 19:28:47;;;;;;;8.13;4.88;;;;;13.70;96918.00;;;;8312157;28;20235;-77
2022/04/29 19:32:50;;;;;;;8.57;4.88;;;;;13.70;96914.00;;;;8307004;28;20239;-79
2022/04/29 19:36:53;;;;;;;8.13;4.95;;;;;13.40;96921.00;;;;8306113;28;20240;-79
2022/04/29 19:40:58;;;;;;;17.23;6.00;;;;;13.20;96920.00;;;;8312455;28;20330;-77
2022/04/29 19:45:01;;;;;;;10.98;5.28;;;;;12.90;96919.00;;;;8309502;28;20232;-77
2022/04/29 19:49:04;;;;;;;14.90;9.00;;;;;12.70;96915.00;;;;8305072;28;20667;-79
2022/04/29 19:53:08;;;;;;;13.05;6.68;;;;;12.60;96919.00;;;;8301944;28;20237;-78
2022/04/29 20:06:26;;;;;;;8.23;5.70;;;;;12.30;96917.00;;;;8229166;28;20635;-76
2022/04/29 20:10:29;;;;;;;8.57;6.18;;;;;12.20;96923.00;;;;8306559;28;20321;-78
2022/04/29 20:14:34;;;;;;;8.70;6.55;;;;;11.90;96921.00;;;;8304942;28;20238;-77
2022/04/29 20:18:38;;;;;;;9.57;7.13;;;;;11.50;96917.00;;;;8308014;28;20229;-76
2022/04/29 20:22:43;;;;;;;9.40;6.28;;;;;11.20;96917.00;;;;8306639;28;20322;-77
2022/04/29 20:26:46;;;;;;;7.38;6.30;;;;;11.00;96926.00;;;;8310412;28;20593;-81
2022/04/29 20:30:53;;;;;;;9.60;6.57;;;;;10.70;96920.00;;;;8309071;28;20351;-74
2022/04/29 20:34:57;;;;;;;8.87;6.57;;;;;10.50;96926.00;;;;8325261;28;20236;-73
2022/04/29 20:39:00;;;;;;;8.35;6.25;;;;;10.30;96928.00;;;;8311498;28;20235;-73
2022/04/29 20:47:29;;;;;;;10.70;7.10;;;;;10.10;96917.00;;;;8312477;28;20229;-75
2022/04/29 20:51:34;;;;;;;10.97;7.20;;;;;10.00;96916.00;;;;8312602;28;20720;-73
2022/04/29 20:55:37;;;;;;;11.30;7.00;;;;;9.90;96908.00;;;;8302513;28;20639;-74
2022/04/29 20:59:41;;;;;;;10.67;6.63;;;;;9.80;96903.00;;;;8308164;28;20775;-74
2022/04/29 21:03:46;;;;;;;13.50;7.10;;;;;9.70;96899.00;;;;8314670;28;20235;-73
2022/04/29 21:07:49;;;;;;;12.00;6.50;;;;;9.70;96898.00;;;;8315773;28;20308;-74
2022/04/29 21:11:54;;;;;;;8.60;6.57;;;;;9.70;96901.00;;;;8313640;28;20221;-73
2022/04/29 21:15:57;;;;;;;7.77;6.33;;;;;9.90;96899.00;;;;8312574;28;20221;-75
2022/04/29 21:20:11;;;;;;;13.70;7.73;;;;;10.10;96907.00;;;;8313132;28;20723;-76
2022/04/29 21:24:14;;;;;;;14.47;8.07;;;;;10.10;96911.00;;;;8307393;28;20999;-75
2022/04/29 21:28:18;;;;;;;12.83;6.63;;;;;10.10;96912.00;;;;8309228;28;20221;-74